Time;durP1;ratioP1;P1;durP2;ratioP2;P2;SDS_P1;SDS_P2;PMS_P1;PMS_P2;Temp;Humidity;BMP_temperature;BMP_pressure;BME280_temperature;BME280_humidity;BME280_pressure;Samples;Min_cycle;Max_cycle;Signal;HPM_P1;HPM_P2
2022/04/03 00:01:48;;;;;;;;;19.75;15.50;;;;;4.13;47.91;101361.44;5064728;28;45308;-79
2022/04/03 00:04:14;;;;;;;;;12.50;11.00;;;;;4.14;47.93;101371.06;5067448;28;45328;-79
2022/04/03 00:06:39;;;;;;;;;15.00;11.75;;;;;4.08;48.30;101351.78;5059954;28;46161;-76
2022/04/03 00:09:04;;;;;;;;;14.50;13.00;;;;;4.15;48.65;101370.22;5056657;28;45451;-75
2022/04/03 00:11:30;;;;;;;;;12.00;12.00;;;;;4.15;48.63;101359.75;5055811;28;45446;-74
2022/04/03 00:13:56;;;;;;;;;12.75;12.75;;;;;4.19;48.14;101369.41;5055442;28;45446;-75
2022/04/03 00:16:22;;;;;;;;;16.00;16.00;;;;;4.08;49.32;101361.34;5044393;28;45464;-74
2022/04/03 00:18:49;;;;;;;;;18.50;13.75;;;;;4.05;48.42;101369.13;5063074;28;45412;-73
2022/04/03 00:21:15;;;;;;;;;18.00;14.50;;;;;4.05;49.32;101374.38;5055996;28;45324;-76
2022/04/03 00:23:40;;;;;;;;;17.75;14.50;;;;;4.06;48.92;101366.53;5055079;28;45528;-74
2022/04/03 00:26:06;;;;;;;;;7.25;7.00;;;;;4.04;49.71;101365.66;5062215;28;45394;-75
2022/04/03 00:28:32;;;;;;;;;16.00;14.00;;;;;4.05;49.39;101369.13;5076710;28;45454;-75
2022/04/03 00:30:58;;;;;;;;;18.75;15.00;;;;;4.03;49.93;101374.34;5076343;27;45495;-74
2022/04/03 00:33:24;;;;;;;;;11.75;11.50;;;;;3.98;50.20;101372.47;5039578;28;45638;-78
2022/04/03 00:35:53;;;;;;;;;15.00;12.75;;;;;3.91;49.42;101374.09;5055599;28;46200;-79
2022/04/03 00:38:18;;;;;;;;;21.00;18.00;;;;;3.92;50.27;101383.72;5056678;28;45619;-79
2022/04/03 00:40:48;;;;;;;;;13.00;13.00;;;;;3.90;50.16;101368.00;5057135;28;45530;-80
2022/04/03 00:43:14;;;;;;;;;18.50;16.50;;;;;3.88;49.86;101377.53;5057030;28;45362;-79
2022/04/03 00:45:44;;;;;;;;;13.50;12.75;;;;;3.90;50.50;101380.16;5056782;28;45504;-78
2022/04/03 00:48:10;;;;;;;;;13.50;13.50;;;;;3.84;50.27;101372.19;5056098;28;45261;-79
2022/04/03 00:50:35;;;;;;;;;2.75;2.00;;;;;3.82;49.95;101373.91;5056693;28;45443;-79
2022/04/03 00:53:01;;;;;;;;;16.00;14.25;;;;;3.87;50.33;101378.41;5055681;28;45617;-80
2022/04/03 00:55:26;;;;;;;;;11.50;11.50;;;;;3.83;50.12;101378.31;5038237;28;46371;-79
2022/04/03 00:57:51;;;;;;;;;9.25;9.25;;;;;3.85;50.09;101379.22;5058083;28;45474;-79
2022/04/03 01:00:17;;;;;;;;;14.00;13.50;;;;;3.76;49.94;101382.50;5062210;28;45367;-79
2022/04/03 01:02:43;;;;;;;;;13.50;13.50;;;;;3.76;50.50;101379.91;5062582;28;45307;-79
2022/04/03 01:05:09;;;;;;;;;11.50;11.50;;;;;3.75;50.31;101372.91;5057858;28;46288;-78
2022/04/03 01:07:34;;;;;;;;;13.50;12.00;;;;;3.77;50.57;101380.78;5038078;28;45900;-78
2022/04/03 01:10:00;;;;;;;;;17.25;13.50;;;;;3.58;50.76;101341.16;5039564;28;45481;-79
2022/04/03 01:12:26;;;;;;;;;13.00;13.00;;;;;3.70;50.76;101367.56;5038658;28;45620;-80
2022/04/03 01:14:51;;;;;;;;;11.75;11.00;;;;;3.66;51.33;101373.59;5055665;28;45431;-78
2022/04/03 01:17:17;;;;;;;;;15.00;15.00;;;;;3.71;50.66;101374.56;5020801;28;45754;-79
2022/04/03 01:19:42;;;;;;;;;12.00;10.50;;;;;3.73;50.90;101367.66;5056846;28;45429;-79
2022/04/03 01:22:08;;;;;;;;;14.00;14.00;;;;;3.68;51.38;101363.19;5056499;28;45865;-79
2022/04/03 01:24:35;;;;;;;;;15.00;13.75;;;;;3.77;51.59;101372.94;5056590;28;47118;-80
2022/04/03 01:27:01;;;;;;;;;15.00;13.50;;;;;3.77;50.96;101370.34;5066732;28;45407;-80
2022/04/03 01:29:27;;;;;;;;;12.25;11.00;;;;;3.73;50.60;101377.22;5067749;28;45420;-79
2022/04/03 01:31:54;;;;;;;;;11.00;9.50;;;;;3.70;51.00;101366.69;5059831;28;45318;-78
2022/04/03 01:34:20;;;;;;;;;14.25;12.00;;;;;3.63;51.56;101363.09;5056015;28;46185;-78
2022/04/03 01:36:48;;;;;;;;;15.25;12.00;;;;;3.63;51.38;101363.09;5055011;28;45473;-79
2022/04/03 01:39:13;;;;;;;;;10.00;9.25;;;;;3.58;51.34;101361.22;5056209;28;45474;-78
2022/04/03 01:41:41;;;;;;;;;6.75;6.75;;;;;3.53;52.14;101358.50;5055904;28;45493;-78
2022/04/03 01:44:08;;;;;;;;;12.25;11.50;;;;;3.50;51.95;101361.06;5054280;28;45565;-78
2022/04/03 01:46:33;;;;;;;;;15.50;12.00;;;;;3.52;52.27;101361.94;5054992;28;45522;-78
2022/04/03 01:48:59;;;;;;;;;12.75;10.00;;;;;3.52;52.52;101372.41;5055351;28;45379;-78
2022/04/03 01:51:24;;;;;;;;;11.25;9.75;;;;;3.51;52.23;101368.06;5055430;28;45544;-78
2022/04/03 01:53:49;;;;;;;;;16.00;16.00;;;;;3.47;52.86;101366.22;5055185;28;45457;-78
2022/04/03 01:56:15;;;;;;;;;20.50;14.00;;;;;3.45;52.38;101370.53;5064363;28;45439;-78
2022/04/03 01:58:41;;;;;;;;;11.50;11.50;;;;;3.46;53.06;101361.81;5068194;27;45482;-78
2022/04/03 02:01:07;;;;;;;;;13.00;13.00;;;;;3.43;52.13;101367.00;5057782;28;45457;-78
2022/04/03 02:03:32;;;;;;;;;19.50;15.50;;;;;3.43;52.41;101361.75;5058075;28;46089;-77
2022/04/03 02:05:57;;;;;;;;;13.00;13.00;;;;;3.43;52.38;101367.00;5056875;28;45462;-78
2022/04/03 02:08:25;;;;;;;;;20.50;17.25;;;;;3.48;52.00;101373.22;5057833;28;49755;-78
2022/04/03 02:10:50;;;;;;;;;13.25;11.50;;;;;3.50;52.09;101374.13;5044482;28;45422;-79
2022/04/03 02:13:15;;;;;;;;;12.50;10.25;;;;;3.51;51.94;101370.66;5058932;28;45440;-77
2022/04/03 02:15:41;;;;;;;;;13.25;9.25;;;;;3.48;52.19;101354.91;5066914;28;45358;-78
2022/04/03 02:18:08;;;;;;;;;12.50;9.75;;;;;3.49;53.09;101364.50;5064781;28;45500;-78
2022/04/03 02:20:33;;;;;;;;;15.75;14.00;;;;;3.54;52.75;101368.13;5058931;28;45327;-79
2022/04/03 02:22:58;;;;;;;;;12.00;12.00;;;;;3.49;52.39;101356.66;5058139;28;46024;-79
2022/04/03 02:25:24;;;;;;;;;13.75;12.00;;;;;3.52;52.77;101362.84;5060183;28;45771;-79
2022/04/03 02:27:51;;;;;;;;;12.00;12.00;;;;;3.55;52.99;101364.63;5060019;28;45478;-79
2022/04/03 02:30:17;;;;;;;;;12.50;9.75;;;;;3.59;52.72;101366.47;5060872;28;45645;-78
2022/04/03 02:32:42;;;;;;;;;11.75;11.75;;;;;3.58;52.75;101371.66;5061968;28;45814;-79
2022/04/03 02:35:09;;;;;;;;;10.00;10.00;;;;;3.53;52.62;101371.56;5061132;28;45447;-78
2022/04/03 02:37:39;;;;;;;;;11.75;11.75;;;;;3.53;52.84;101361.13;5058497;28;45406;-78
2022/04/03 02:40:07;;;;;;;;;10.50;10.50;;;;;3.52;52.97;101362.84;5058441;28;45602;-78
2022/04/03 02:42:33;;;;;;;;;10.50;10.50;;;;;3.50;52.41;101364.53;5058214;28;45475;-78
2022/04/03 02:44:58;;;;;;;;;11.00;11.00;;;;;3.56;53.21;101372.50;5057056;28;45963;-77
2022/04/03 02:47:25;;;;;;;;;13.50;13.50;;;;;3.51;52.59;101370.66;5040640;28;45519;-79
2022/04/03 02:49:51;;;;;;;;;16.50;16.50;;;;;3.47;53.88;101361.84;5058966;28;45632;-79
2022/04/03 02:52:18;;;;;;;;;15.00;12.00;;;;;3.42;53.34;101365.25;5059970;28;46168;-79
2022/04/03 02:54:44;;;;;;;;;12.00;12.00;;;;;3.45;53.80;101368.78;5061967;28;45427;-79
2022/04/03 02:57:11;;;;;;;;;14.00;12.00;;;;;3.50;53.15;101371.50;5059352;28;45453;-78
2022/04/03 02:59:36;;;;;;;;;13.00;12.75;;;;;3.51;53.11;101365.44;5058949;28;45451;-77
2022/04/03 03:02:01;;;;;;;;;10.00;10.00;;;;;3.48;53.44;101368.00;5061821;28;45398;-78
2022/04/03 03:04:27;;;;;;;;;4.50;4.00;;;;;3.42;53.08;101368.72;5062682;28;45447;-78
2022/04/03 03:06:52;;;;;;;;;19.00;13.75;;;;;3.43;53.55;101361.75;5059047;28;45383;-78
2022/04/03 03:09:17;;;;;;;;;14.75;13.25;;;;;3.44;53.41;101368.75;5058365;28;45441;-78
2022/04/03 03:11:43;;;;;;;;;15.75;14.00;;;;;3.41;53.69;101380.03;5056681;28;53373;-79
2022/04/03 03:14:09;;;;;;;;;16.75;15.00;;;;;3.38;53.46;101383.44;5057618;28;45461;-78
2022/04/03 03:16:34;;;;;;;;;12.00;12.00;;;;;3.30;54.50;101376.31;5058104;28;45327;-78
2022/04/03 03:19:00;;;;;;;;;10.00;9.00;;;;;3.28;54.47;101383.19;5038645;28;45363;-78
2022/04/03 03:21:25;;;;;;;;;15.50;15.50;;;;;3.24;53.87;101387.50;5057773;28;46538;-78
2022/04/03 03:23:50;;;;;;;;;12.50;12.50;;;;;3.23;54.34;101388.31;5058184;28;45324;-79
2022/04/03 03:26:16;;;;;;;;;14.00;14.00;;;;;3.22;55.14;101385.69;5056858;28;45379;-78
2022/04/03 03:28:41;;;;;;;;;17.75;15.25;;;;;3.14;54.95;101396.84;5057884;28;45630;-78
2022/04/03 03:31:06;;;;;;;;;16.75;14.50;;;;;3.13;54.70;101394.22;5057729;28;45956;-78
2022/04/03 03:33:32;;;;;;;;;11.00;10.75;;;;;3.08;55.15;101386.22;5063277;28;45492;-78
2022/04/03 03:35:57;;;;;;;;;11.00;11.00;;;;;3.11;54.53;101395.88;5060383;28;45327;-78
2022/04/03 03:38:24;;;;;;;;;15.50;10.00;;;;;3.18;54.32;101400.41;5057128;28;45479;-78
2022/04/03 03:40:50;;;;;;;;;15.25;9.75;;;;;3.15;55.00;101402.94;5057394;28;45518;-79
2022/04/03 03:43:15;;;;;;;;;16.00;15.00;;;;;3.13;54.52;101394.22;5057932;28;45605;-78
2022/04/03 03:45:41;;;;;;;;;15.75;13.50;;;;;3.11;55.51;101390.66;5052440;28;45481;-78
2022/04/03 03:48:10;;;;;;;;;11.50;9.75;;;;;3.12;55.02;101388.06;5074325;27;45542;-79
2022/04/03 03:50:36;;;;;;;;;8.00;8.00;;;;;3.14;54.72;101395.94;5060236;28;46777;-78
2022/04/03 03:53:01;;;;;;;;;8.25;8.25;;;;;3.11;55.11;101391.56;5038191;28;45375;-79
2022/04/03 03:55:26;;;;;;;;;12.00;11.50;;;;;3.11;54.70;101388.94;5068017;27;45507;-79
2022/04/03 03:57:52;;;;;;;;;10.00;10.00;;;;;3.10;54.39;101404.56;5061235;28;45375;-78
2022/04/03 04:00:18;;;;;;;;;14.50;10.00;;;;;3.11;54.37;101398.50;5058427;28;45997;-78
2022/04/03 04:02:43;;;;;;;;;12.00;12.00;;;;;3.11;54.52;101401.09;5058576;28;45433;-79
2022/04/03 04:05:10;;;;;;;;;15.50;12.00;;;;;3.08;54.71;101385.34;5061677;28;45516;-78
2022/04/03 04:07:44;;;;;;;;;16.00;13.00;;;;;3.14;55.66;101395.94;5060651;28;45584;-79
2022/04/03 04:10:13;;;;;;;;;11.50;9.75;;;;;3.09;54.03;101392.34;5057538;28;45419;-78
2022/04/03 04:12:40;;;;;;;;;10.00;6.75;;;;;3.12;54.52;101395.03;5057632;28;45447;-79
2022/04/03 04:15:06;;;;;;;;;13.00;12.75;;;;;3.13;55.07;101400.31;5051278;28;45248;-78
2022/04/03 04:17:36;;;;;;;;;8.50;8.50;;;;;3.05;54.67;101395.72;5048790;28;45568;-78
2022/04/03 04:20:04;;;;;;;;;12.75;11.00;;;;;3.03;54.85;101398.31;5060525;28;45395;-79
2022/04/03 04:22:30;;;;;;;;;13.00;12.75;;;;;3.02;54.79;101396.53;5057421;28;45349;-79
2022/04/03 04:24:55;;;;;;;;;12.25;11.75;;;;;3.02;54.55;101410.50;5056855;28;45465;-79
2022/04/03 04:27:21;;;;;;;;;11.00;9.00;;;;;3.01;55.08;101413.06;5064216;28;45489;-79
2022/04/03 04:29:48;;;;;;;;;13.00;12.00;;;;;2.83;54.71;101384.78;5076884;27;46201;-78
2022/04/03 04:32:13;;;;;;;;;12.50;12.50;;;;;2.94;55.23;101419.84;5069701;27;45420;-78
2022/04/03 04:34:39;;;;;;;;;12.50;9.75;;;;;2.91;55.00;101421.53;5058724;28;45409;-78
2022/04/03 04:37:04;;;;;;;;;14.00;13.00;;;;;2.89;55.72;101424.09;5066250;28;45449;-79
2022/04/03 04:39:31;;;;;;;;;14.00;12.75;;;;;2.86;55.08;101425.75;5077940;28;45490;-78
2022/04/03 04:41:57;;;;;;;;;3.00;2.00;;;;;2.90;54.75;101425.88;5077661;28;45460;-78
2022/04/03 04:44:22;;;;;;;;;9.00;9.00;;;;;2.87;55.43;101427.50;5059029;28;45417;-80
2022/04/03 04:46:47;;;;;;;;;13.50;12.25;;;;;2.78;54.34;101417.69;5059474;27;45427;-79
2022/04/03 04:49:14;;;;;;;;;9.75;9.00;;;;;2.84;55.63;101428.34;5055797;28;45393;-77
2022/04/03 04:51:40;;;;;;;;;11.50;9.50;;;;;2.76;55.23;101430.72;5056054;28;45315;-78
2022/04/03 04:54:07;;;;;;;;;6.25;4.50;;;;;2.72;55.74;101428.91;5057782;28;45436;-78
2022/04/03 04:56:33;;;;;;;;;13.25;11.00;;;;;2.69;54.92;101420.09;5056311;28;45428;-77
2022/04/03 04:58:59;;;;;;;;;16.25;14.50;;;;;2.63;55.12;101426.94;5056677;28;46200;-73
2022/04/03 05:01:24;;;;;;;;;7.50;7.50;;;;;2.62;55.06;101435.59;5055036;28;45301;-75
2022/04/03 05:03:49;;;;;;;;;8.00;7.00;;;;;2.60;55.84;101432.06;5055001;28;45386;-74
2022/04/03 05:06:15;;;;;;;;;13.75;10.25;;;;;2.58;55.58;101441.59;5067458;28;45601;-74
2022/04/03 05:08:42;;;;;;;;;9.75;9.25;;;;;2.56;55.92;101443.25;5075152;28;45437;-75
2022/04/03 05:11:07;;;;;;;;;10.00;9.00;;;;;2.52;55.90;101449.25;5075966;28;45484;-73
2022/04/03 05:13:33;;;;;;;;;12.75;11.50;;;;;2.45;56.22;101445.59;5055286;28;45501;-74
2022/04/03 05:15:59;;;;;;;;;12.25;10.50;;;;;2.36;56.78;101444.47;5036221;28;45485;-73
2022/04/03 05:18:24;;;;;;;;;14.00;10.00;;;;;2.25;56.83;101442.44;5055423;28;45478;-74
2022/04/03 05:20:51;;;;;;;;;9.75;8.00;;;;;2.22;57.09;101444.97;5055041;28;45478;-76
2022/04/03 05:23:16;;;;;;;;;7.50;7.50;;;;;2.22;56.80;101450.19;5054907;28;45395;-74
2022/04/03 05:25:43;;;;;;;;;11.00;9.00;;;;;2.17;57.27;101446.56;5054888;28;45328;-73
2022/04/03 05:28:09;;;;;;;;;11.75;11.75;;;;;2.14;57.52;101454.28;5054526;28;45376;-74
2022/04/03 05:30:35;;;;;;;;;12.00;11.00;;;;;2.06;57.55;101455.78;5053810;28;45500;-75
2022/04/03 05:33:00;;;;;;;;;12.75;10.00;;;;;1.99;57.87;101443.41;5055279;28;45748;-80
2022/04/03 05:35:25;;;;;;;;;12.25;11.50;;;;;2.06;57.18;101461.00;5061435;28;45388;-78
2022/04/03 05:37:50;;;;;;;;;16.00;13.50;;;;;2.07;57.28;101463.66;5081715;28;45557;-79
2022/04/03 05:40:16;;;;;;;;;12.00;10.00;;;;;2.23;57.38;101467.63;5079469;28;45518;-78
2022/04/03 05:42:41;;;;;;;;;11.75;10.00;;;;;2.49;56.09;101472.69;5075340;28;45644;-75
2022/04/03 05:45:08;;;;;;;;;13.25;12.25;;;;;2.79;55.17;101462.16;5055692;28;45520;-74
2022/04/03 05:47:35;;;;;;;;;12.50;9.00;;;;;3.27;53.90;101475.53;5054373;28;46122;-74
2022/04/03 05:50:02;;;;;;;;;12.25;11.50;;;;;3.63;54.06;101470.28;5054359;28;45524;-73
2022/04/03 05:52:39;;;;;;;;;14.75;11.50;;;;;4.08;52.06;101463.38;5054423;28;45462;-74
2022/04/03 05:55:07;;;;;;;;;15.00;13.50;;;;;4.50;50.73;101462.47;5055160;28;45643;-74
2022/04/03 05:57:33;;;;;;;;;9.00;9.00;;;;;4.92;49.96;101460.59;5075402;27;45427;-78
2022/04/03 05:59:58;;;;;;;;;10.75;10.75;;;;;5.36;48.35;101462.19;5054952;28;45366;-78
2022/04/03 06:02:23;;;;;;;;;15.50;12.50;;;;;5.62;48.36;101454.75;5054372;28;45385;-80
2022/04/03 06:04:49;;;;;;;;;10.00;8.00;;;;;6.13;46.57;101463.31;5037637;28;45624;-75
2022/04/03 06:07:14;;;;;;;;;11.75;9.75;;;;;6.72;45.40;101462.22;5061588;28;46112;-79
2022/04/03 06:09:40;;;;;;;;;11.25;11.25;;;;;7.01;44.69;101469.50;5060127;28;45446;-75
2022/04/03 06:12:05;;;;;;;;;13.00;13.00;;;;;7.33;42.56;101472.38;5053577;28;45415;-75
2022/04/03 06:14:30;;;;;;;;;13.00;9.50;;;;;7.78;42.54;101472.69;5062029;28;46084;-75
2022/04/03 06:16:58;;;;;;;;;13.50;13.50;;;;;8.23;40.29;101463.25;5058109;28;46192;-79
2022/04/03 06:19:24;;;;;;;;;13.00;11.50;;;;;8.66;40.49;101473.94;5055272;28;45531;-80
2022/04/03 06:21:49;;;;;;;;;9.25;9.00;;;;;9.09;38.87;101475.75;5055159;28;45296;-75
2022/04/03 06:24:14;;;;;;;;;9.25;9.25;;;;;9.49;37.91;101474.84;5054938;28;45632;-75
2022/04/03 06:26:40;;;;;;;;;11.00;10.00;;;;;9.82;37.69;101478.31;5054985;28;45469;-74
2022/04/03 06:29:05;;;;;;;;;13.50;11.00;;;;;10.08;37.11;101479.13;5055005;28;45486;-79
2022/04/03 06:31:30;;;;;;;;;11.25;10.50;;;;;10.19;35.94;101475.56;5054436;28;45410;-74
2022/04/03 06:33:56;;;;;;;;;10.00;10.00;;;;;10.35;36.20;101482.56;5041072;28;45615;-75
2022/04/03 06:36:21;;;;;;;;;2.50;2.00;;;;;10.61;35.19;101487.75;5074853;28;46117;-74
2022/04/03 06:38:46;;;;;;;;;12.50;10.25;;;;;10.96;34.83;101485.72;5075178;28;45442;-75
2022/04/03 06:41:20;;;;;;;;;8.50;4.25;;;;;11.32;34.18;101486.34;5050027;28;45499;-74
2022/04/03 06:43:47;;;;;;;;;12.50;8.75;;;;;11.67;33.65;101477.19;5034588;28;45513;-76
2022/04/03 06:46:15;;;;;;;;;12.50;12.00;;;;;11.93;32.90;101481.38;5054192;28;45438;-77
2022/04/03 06:48:41;;;;;;;;;12.25;9.00;;;;;11.91;32.71;101494.59;5055242;28;45583;-79
2022/04/03 06:51:06;;;;;;;;;15.00;12.00;;;;;12.18;32.51;101488.13;5053410;28;45548;-74
2022/04/03 06:53:31;;;;;;;;;9.00;8.00;;;;;12.63;31.95;101487.53;5035748;28;45734;-79
2022/04/03 06:55:58;;;;;;;;;11.75;8.75;;;;;13.06;31.57;101494.00;5078103;28;46198;-77
2022/04/03 06:58:23;;;;;;;;;11.50;11.50;;;;;13.35;30.88;101495.34;5068190;28;45379;-79
2022/04/03 07:00:48;;;;;;;;;12.50;9.75;;;;;13.32;30.80;101510.38;5070694;28;45579;-80
2022/04/03 07:03:14;;;;;;;;;12.75;12.75;;;;;13.57;29.98;101499.34;5078246;27;45536;-77
2022/04/03 07:05:40;;;;;;;;;13.25;9.00;;;;;13.98;29.31;101503.03;5077342;28;45374;-77
2022/04/03 07:08:06;;;;;;;;;11.50;11.50;;;;;14.15;28.97;101507.13;5069391;28;45414;-74
2022/04/03 07:10:33;;;;;;;;;13.00;10.75;;;;;14.18;28.76;101504.41;5058248;28;45434;-80
2022/04/03 07:12:59;;;;;;;;;12.75;9.75;;;;;14.10;28.77;101509.00;5067666;28;45320;-76
2022/04/03 07:15:25;;;;;;;;;11.25;9.00;;;;;14.19;28.99;101504.38;5060945;27;46343;-78
2022/04/03 07:17:50;;;;;;;;;8.50;8.00;;;;;14.45;28.75;101500.28;5057722;28;45383;-78
2022/04/03 07:20:15;;;;;;;;;5.00;4.75;;;;;14.87;28.05;101504.72;5057354;28;45415;-76
2022/04/03 07:22:43;;;;;;;;;10.50;9.25;;;;;15.16;27.80;101509.34;5055865;28;45498;-74
2022/04/03 07:25:10;;;;;;;;;8.75;7.00;;;;;15.08;27.74;101512.22;5056835;28;45454;-74
2022/04/03 07:27:35;;;;;;;;;12.00;8.00;;;;;15.24;27.02;101522.47;5056339;28;45474;-74
2022/04/03 07:30:01;;;;;;;;;6.75;6.75;;;;;15.43;26.74;101513.13;5055852;28;45653;-74
2022/04/03 07:32:26;;;;;;;;;5.75;4.75;;;;;15.64;26.60;101517.03;5056611;28;45364;-75
2022/04/03 07:34:51;;;;;;;;;11.25;9.25;;;;;15.89;26.21;101510.19;5062010;28;46440;-74
2022/04/03 07:37:17;;;;;;;;;10.25;8.50;;;;;16.19;26.04;101504.94;5076112;28;45346;-75
2022/04/03 07:39:43;;;;;;;;;9.25;9.25;;;;;16.23;25.80;101519.91;5056546;28;45609;-74
2022/04/03 07:42:08;;;;;;;;;8.50;8.50;;;;;16.43;25.71;101522.03;5044102;28;45601;-73
2022/04/03 07:44:34;;;;;;;;;6.50;6.25;;;;;16.63;25.38;101516.09;5054766;28;46368;-75
2022/04/03 07:47:00;;;;;;;;;8.00;7.25;;;;;16.91;25.08;101521.44;5048982;28;45402;-74
2022/04/03 07:49:25;;;;;;;;;11.00;9.00;;;;;17.22;24.32;101510.66;5032840;28;45580;-80
2022/04/03 07:51:51;;;;;;;;;7.75;7.00;;;;;17.39;24.38;101511.91;5056126;28;45474;-76
2022/04/03 07:54:17;;;;;;;;;11.00;9.75;;;;;17.32;24.21;101523.72;5032616;28;45586;-80
2022/04/03 07:56:42;;;;;;;;;10.50;8.00;;;;;17.23;24.32;101517.75;5048404;28;45494;-74
2022/04/03 07:59:08;;;;;;;;;9.75;9.75;;;;;17.33;24.28;101528.13;5056109;28;45363;-75
2022/04/03 08:01:34;;;;;;;;;9.75;7.25;;;;;17.41;24.29;101523.41;5049297;28;45585;-79
2022/04/03 08:04:10;;;;;;;;;7.00;7.00;;;;;17.69;23.99;101515.31;5052320;28;46263;-75
2022/04/03 08:06:36;;;;;;;;;7.00;7.00;;;;;17.92;23.67;101535.91;5045390;28;45493;-80
2022/04/03 08:09:02;;;;;;;;;9.50;9.00;;;;;17.56;23.89;101525.53;5047035;28;45560;-76
2022/04/03 08:11:27;;;;;;;;;11.00;9.50;;;;;17.64;23.45;101532.44;5033674;28;45645;-75
2022/04/03 08:13:52;;;;;;;;;9.00;9.00;;;;;17.62;23.35;101531.63;5046164;28;46085;-80
2022/04/03 08:16:18;;;;;;;;;7.75;7.75;;;;;17.39;22.80;101530.59;5051503;28;45387;-74
2022/04/03 08:18:43;;;;;;;;;7.00;6.00;;;;;17.43;23.78;101531.38;5045032;28;45553;-79
2022/04/03 08:21:10;;;;;;;;;7.25;7.00;;;;;17.62;23.22;101531.63;5028252;28;45552;-79
2022/04/03 08:23:36;;;;;;;;;7.00;5.75;;;;;17.48;23.07;101540.97;5045520;28;45562;-80
2022/04/03 08:26:02;;;;;;;;;6.00;5.00;;;;;17.46;23.06;101542.84;5029453;28;45393;-74
2022/04/03 08:28:28;;;;;;;;;7.00;6.00;;;;;17.48;22.75;101540.97;5053653;28;45240;-80
2022/04/03 08:30:54;;;;;;;;;6.50;6.50;;;;;17.52;23.30;101545.31;5068932;28;44889;-80
2022/04/03 08:33:19;;;;;;;;;6.75;6.25;;;;;17.54;22.56;101546.13;5052352;28;46289;-79
2022/04/03 08:35:46;;;;;;;;;3.00;3.00;;;;;17.54;22.62;101556.81;5051233;28;45424;-81
2022/04/03 08:38:12;;;;;;;;;5.75;5.75;;;;;17.64;22.77;101540.44;5056388;28;45517;-74
2022/04/03 08:40:37;;;;;;;;;6.00;6.00;;;;;17.44;22.82;101559.84;5052861;28;45490;-80
2022/04/03 08:43:04;;;;;;;;;10.75;6.75;;;;;17.51;22.55;101548.91;5057845;28;45520;-80
2022/04/03 08:45:30;;;;;;;;;6.00;6.00;;;;;17.38;22.92;101544.88;5039289;28;45471;-80
2022/04/03 08:47:58;;;;;;;;;6.25;6.25;;;;;17.01;23.15;101554.09;5055517;28;44845;-81
2022/04/03 08:50:30;;;;;;;;;5.25;5.25;;;;;17.35;23.08;101547.66;5050019;28;45450;-80
2022/04/03 08:52:59;;;;;;;;;6.75;6.75;;;;;17.68;22.55;101536.75;5063318;28;46367;-79
2022/04/03 08:55:25;;;;;;;;;5.00;5.00;;;;;17.97;22.21;101553.63;5057626;28;45589;-81
2022/04/03 08:57:50;;;;;;;;;6.50;4.50;;;;;18.28;21.60;101543.56;5067800;28;45422;-79
2022/04/03 09:00:16;;;;;;;;;7.25;5.50;;;;;18.22;21.60;101551.81;5056750;28;45577;-79
2022/04/03 09:02:45;;;;;;;;;7.25;6.00;;;;;18.29;21.52;101539.97;5054840;28;46041;-78
2022/04/03 09:05:10;;;;;;;;;6.00;4.00;;;;;18.27;20.58;101548.97;5054598;28;45576;-79
2022/04/03 09:07:36;;;;;;;;;4.75;3.25;;;;;18.07;21.39;101547.88;5061497;28;45304;-82
2022/04/03 09:10:10;;;;;;;;;5.00;3.00;;;;;18.70;21.30;101543.78;5037969;28;45514;-80
2022/04/03 09:12:44;;;;;;;;;4.00;4.00;;;;;18.38;21.55;101554.78;5053495;28;45604;-80
2022/04/03 09:15:14;;;;;;;;;3.50;3.00;;;;;18.10;21.40;101555.78;5052789;28;45547;-79
2022/04/03 09:17:42;;;;;;;;;4.50;2.25;;;;;18.02;21.92;101546.28;5055946;28;45494;-79
2022/04/03 09:20:13;;;;;;;;;5.75;5.75;;;;;18.05;22.42;101556.88;5055421;28;45478;-79
2022/04/03 09:22:41;;;;;;;;;5.75;5.00;;;;;18.04;21.96;101539.09;5063097;28;45455;-80
2022/04/03 09:25:13;;;;;;;;;2.00;2.00;;;;;17.71;21.46;101547.34;5059870;28;45359;-80
2022/04/03 09:27:49;;;;;;;;;3.00;3.00;;;;;17.75;21.01;101557.00;5037132;28;45446;-80
2022/04/03 09:30:16;;;;;;;;;5.00;2.00;;;;;18.12;21.03;101553.06;5053350;28;45456;-80
2022/04/03 09:33:02;;;;;;;;;1.00;1.00;;;;;18.00;20.60;101548.16;5053713;28;45449;-80
2022/04/03 09:35:57;;;;;;;;;3.00;1.75;;;;;17.42;20.72;101543.84;5035652;28;45478;-80
2022/04/03 09:38:23;;;;;;;;;2.00;0.75;;;;;17.39;20.36;101551.97;5047556;28;45494;-80
2022/04/03 09:40:51;;;;;;;;;1.00;1.00;;;;;17.53;20.27;101548.84;5055139;28;45397;-81
2022/04/03 09:43:27;;;;;;;;;1.00;1.00;;;;;17.52;19.87;101545.31;5054304;28;46331;-80
2022/04/03 09:45:56;;;;;;;;;1.50;1.50;;;;;17.25;20.02;101546.19;5059431;28;45484;-78
2022/04/03 09:48:28;;;;;;;;;2.00;0.75;;;;;17.32;20.24;101547.75;5054459;28;45436;-79
2022/04/03 09:50:54;;;;;;;;;1.00;1.00;;;;;16.85;19.68;101546.53;5050818;28;45486;-80
2022/04/03 09:53:20;;;;;;;;;1.25;0.25;;;;;16.77;20.05;101531.66;5035777;28;45850;-80
2022/04/03 09:55:46;;;;;;;;;0.50;0.00;;;;;17.36;19.66;101530.72;5056476;28;45412;-81
2022/04/03 09:58:12;;;;;;;;;0.00;0.00;;;;;17.54;18.92;101543.44;5072809;28;45544;-80
2022/04/03 10:00:40;;;;;;;;;0.00;0.00;;;;;17.50;18.99;101544.47;5049500;28;45563;-82
2022/04/03 10:03:08;;;;;;;;;0.00;0.00;;;;;17.38;18.69;101544.88;5060741;28;45455;-81
2022/04/03 10:05:34;;;;;;;;;0.75;0.75;;;;;17.31;19.22;101537.97;5059057;28;45458;-80
2022/04/03 10:08:01;;;;;;;;;0.00;0.00;;;;;17.49;18.44;101541.84;5058027;28;45484;-80
2022/04/03 10:10:28;;;;;;;;;0.25;0.25;;;;;17.02;19.06;101548.69;5054618;28;45573;-78
2022/04/03 10:12:55;;;;;;;;;0.00;0.00;;;;;16.72;18.97;101545.16;5058236;28;46205;-80
2022/04/03 10:15:21;;;;;;;;;0.50;0.25;;;;;16.86;19.46;101532.28;5079549;28;45394;-80
2022/04/03 10:17:47;;;;;;;;;0.00;0.00;;;;;17.13;19.32;101543.03;5067773;27;45393;-79
2022/04/03 10:20:14;;;;;;;;;0.00;0.00;;;;;17.13;18.69;101540.34;5059647;28;45497;-78
2022/04/03 10:22:42;;;;;;;;;0.00;0.00;;;;;17.20;18.81;101533.88;5054323;28;46205;-80
2022/04/03 10:25:14;;;;;;;;;0.00;0.00;;;;;17.63;18.72;101525.34;5053338;28;45453;-80
2022/04/03 10:27:42;;;;;;;;;0.25;0.25;;;;;17.79;19.27;101533.72;5035437;28;45404;-82
2022/04/03 10:30:10;;;;;;;;;0.00;0.00;;;;;17.36;18.54;101525.38;5037450;28;45613;-79
2022/04/03 10:32:36;;;;;;;;;1.00;1.00;;;;;17.54;19.12;101538.09;5021500;28;45426;-81
2022/04/03 10:35:10;;;;;;;;;4.00;1.00;;;;;17.70;19.10;101537.56;5040255;28;45438;-80
2022/04/03 10:37:38;;;;;;;;;0.50;0.00;;;;;17.31;19.30;101530.88;5057808;28;45558;-79
2022/04/03 10:40:16;;;;;;;;;0.25;0.25;;;;;16.90;19.12;101526.84;5040482;28;45589;-79
2022/04/03 10:43:03;;;;;;;;;0.00;0.00;;;;;16.63;19.86;101543.63;5060520;28;46439;-79
2022/04/03 10:45:36;;;;;;;;;0.00;0.00;;;;;16.04;20.34;101536.44;5064183;28;45441;-81
2022/04/03 10:48:30;;;;;;;;;0.00;0.00;;;;;16.15;20.29;101534.34;5058074;28;45478;-80
2022/04/03 10:51:03;;;;;;;;;0.25;0.00;;;;;16.05;20.40;101540.84;5035753;28;45320;-81
2022/04/03 10:53:31;;;;;;;;;1.00;1.00;;;;;15.64;20.37;101537.47;5037539;28;45489;-80
2022/04/03 10:56:02;;;;;;;;;0.00;0.00;;;;;15.72;20.63;101537.28;5042849;28;45387;-80
2022/04/03 10:58:56;;;;;;;;;1.00;1.00;;;;;15.84;20.84;101528.97;5039297;28;45350;-81
2022/04/03 11:01:34;;;;;;;;;1.00;1.00;;;;;15.20;21.08;101537.66;5055476;28;45629;-80
2022/04/03 11:04:13;;;;;;;;;3.00;0.75;;;;;15.03;21.72;101530.09;5066264;28;46073;-76
2022/04/03 11:06:40;;;;;;;;;0.75;0.25;;;;;15.47;21.16;101513.91;5077142;28;45463;-75
2022/04/03 11:09:14;;;;;;;;;1.25;1.25;;;;;15.93;20.84;101522.53;5059652;28;45474;-75
2022/04/03 11:11:43;;;;;;;;;1.00;0.00;;;;;15.72;20.87;101514.16;5057853;28;45615;-74
2022/04/03 11:14:10;;;;;;;;;0.25;0.25;;;;;16.08;21.36;101526.53;5060564;28;45377;-80
2022/04/03 11:16:56;;;;;;;;;3.00;1.00;;;;;15.96;21.10;101514.44;5041756;28;45395;-80
2022/04/03 11:19:36;;;;;;;;;0.00;0.00;;;;;16.20;20.39;101498.66;5057112;28;45340;-81
2022/04/03 11:22:05;;;;;;;;;0.00;0.00;;;;;16.48;20.81;101499.59;5056566;28;45569;-77